Archival Weather

Chicago O'Hare International

Chicago, Illinois (KORD)

Report from: Wednesday, December 21, 2022 11:51 AM CST
Current time: Friday, June 21, 2024 4:06 AM CDT

Current weather – Weather history – Daily summaries
Weather forecast

Temperature-5.6°C (21.9°F)
Wind chill-9.1°C (15.7°F)
Dew point-10.0°C (14.0°F)
Winds 4 kts (2.1 m/s, 4.6 mph) North (360°)
Visibility10 mi. (16.1 km)
Clouds Ceiling: Overcast 2,900 ft. (884 m)
Altimeter30.37 in.Hg (1028 mB)
Relative humidity71 %
Density altitude-3,063 ft. (-934 m)
Sea-level pressure103.0 kPa (1030 mB, 30.41 in.Hg)
Max temp last 6 hours-5.6°C (21.9°F)
Min temp last 6 hours-11.7°C (10.9°F)
Remarks Automated weather observing station with precipitation discriminator
Pressure falling more quickly
Flight conditions Marginal Visual Meteorological Conditions
Raw dataKORD 211751Z 36004KT 10SM OVC029 M06/M10 A3037 RMK AO2 SLP297 T10561100 11056 21117 58025
An error has occurred. This application may no longer respond until reloaded. Reload 🗙